Time;durP1;ratioP1;P1;durP2;ratioP2;P2;SDS_P1;SDS_P2;PMS_P1;PMS_P2;Temp;Humidity;BMP_temperature;BMP_pressure;BME280_temperature;BME280_humidity;BME280_pressure;Samples;Min_cycle;Max_cycle;Signal;HPM_P1;HPM_P2
2022/09/06 00:01:08;;;;;;;2.30;2.10;;;25.50;43.80;;;;;;4891514;29;20451;-52
2022/09/06 00:03:37;;;;;;;4.40;1.77;;;25.50;44.30;;;;;;4885437;29;20463;-52
2022/09/06 00:06:07;;;;;;;3.50;1.97;;;25.50;44.50;;;;;;4889509;29;20479;-52
2022/09/06 00:08:36;;;;;;;2.30;1.70;;;25.40;45.20;;;;;;4886942;29;20438;-51
2022/09/06 00:11:05;;;;;;;3.23;2.10;;;25.40;45.30;;;;;;4873643;29;20491;-53
2022/09/06 00:13:34;;;;;;;3.17;2.13;;;25.40;45.40;;;;;;4890964;29;20475;-52
2022/09/06 00:16:09;;;;;;;2.10;1.90;;;25.40;45.60;;;;;;4886237;29;20486;-53
2022/09/06 00:18:42;;;;;;;1.73;1.63;;;25.40;45.80;;;;;;4881305;29;20450;-52
2022/09/06 00:21:16;;;;;;;3.60;2.10;;;25.40;45.50;;;;;;4875917;29;20460;-51
2022/09/06 00:23:44;;;;;;;4.20;2.13;;;25.40;45.60;;;;;;4865838;29;20476;-51
2022/09/06 00:26:13;;;;;;;2.50;2.30;;;25.50;45.70;;;;;;4860380;29;20482;-55
2022/09/06 00:28:42;;;;;;;1.90;1.70;;;25.40;45.20;;;;;;4891224;29;20436;-51
2022/09/06 00:31:14;;;;;;;1.50;1.40;;;25.50;45.40;;;;;;4868791;29;20534;-54
2022/09/06 00:33:43;;;;;;;2.40;1.60;;;25.50;45.60;;;;;;4889298;29;20511;-51
2022/09/06 00:36:12;;;;;;;1.70;1.53;;;25.50;45.40;;;;;;4883680;29;20481;-51
2022/09/06 00:38:41;;;;;;;2.40;2.20;;;25.50;45.40;;;;;;4876193;29;21201;-51
2022/09/06 00:41:12;;;;;;;2.57;1.93;;;25.50;45.20;;;;;;4878865;29;20447;-51
2022/09/06 00:43:41;;;;;;;1.93;1.73;;;25.50;45.30;;;;;;4875738;29;20554;-51
2022/09/06 00:46:15;;;;;;;2.00;1.90;;;25.50;45.50;;;;;;4876372;29;20497;-57
2022/09/06 00:48:46;;;;;;;2.33;1.80;;;25.50;45.50;;;;;;4891687;29;20477;-52
2022/09/06 00:51:17;;;;;;;2.13;1.80;;;25.50;45.70;;;;;;4862954;29;20457;-51
2022/09/06 00:53:45;;;;;;;2.50;2.30;;;25.50;45.60;;;;;;4890499;29;21054;-51
2022/09/06 00:56:14;;;;;;;1.90;1.80;;;25.50;45.60;;;;;;4877424;29;20530;-51
2022/09/06 00:58:43;;;;;;;3.30;1.90;;;25.50;45.70;;;;;;4891545;29;20877;-51
2022/09/06 01:01:12;;;;;;;2.00;1.90;;;25.50;46.00;;;;;;4869312;29;20470;-51
2022/09/06 01:03:42;;;;;;;3.20;1.97;;;25.50;45.90;;;;;;4886677;29;20933;-50
2022/09/06 01:06:20;;;;;;;4.20;2.50;;;25.50;45.90;;;;;;4886679;29;20458;-51
2022/09/06 01:09:00;;;;;;;1.70;1.60;;;25.50;46.20;;;;;;4883937;29;20549;-51
2022/09/06 01:11:48;;;;;;;5.60;2.27;;;25.50;45.80;;;;;;4871556;29;20477;-51
2022/09/06 01:14:29;;;;;;;2.77;2.40;;;25.50;45.90;;;;;;4870865;29;21069;-51
2022/09/06 01:17:09;;;;;;;2.40;2.10;;;25.50;45.80;;;;;;4886614;29;20475;-52
2022/09/06 01:20:18;;;;;;;3.03;1.97;;;25.50;45.90;;;;;;4890468;29;20454;-51
2022/09/06 01:23:17;;;;;;;2.10;1.90;;;25.50;45.60;;;;;;4792694;29;20502;-51
2022/09/06 01:25:59;;;;;;;2.73;2.17;;;25.50;45.40;;;;;;4801631;29;20454;-51
2022/09/06 01:28:33;;;;;;;3.13;2.00;;;25.50;45.50;;;;;;4797343;29;20551;-50
2022/09/06 01:31:18;;;;;;;2.13;1.53;;;25.50;45.60;;;;;;4793984;29;20498;-50
2022/09/06 01:33:55;;;;;;;1.83;1.73;;;25.50;45.90;;;;;;4889256;29;21013;-51
2022/09/06 01:36:32;;;;;;;4.50;2.07;;;25.50;45.90;;;;;;4862045;29;21079;-51
2022/09/06 01:39:02;;;;;;;2.10;2.00;;;25.50;45.30;;;;;;4879123;29;20997;-51
2022/09/06 01:41:31;;;;;;;2.37;1.53;;;25.50;45.80;;;;;;4890052;29;20561;-51
2022/09/06 01:44:01;;;;;;;2.33;2.13;;;25.50;45.30;;;;;;4887141;29;20459;-51
2022/09/06 01:46:38;;;;;;;2.90;2.60;;;25.50;45.70;;;;;;4897800;29;20881;-51
2022/09/06 01:49:22;;;;;;;2.10;1.87;;;25.50;45.60;;;;;;4870742;29;20486;-51
2022/09/06 01:52:02;;;;;;;2.13;2.00;;;25.50;45.60;;;;;;4893729;29;20470;-51
2022/09/06 01:54:46;;;;;;;2.93;2.20;;;25.50;45.10;;;;;;4893541;29;20549;-51
2022/09/06 01:57:31;;;;;;;2.80;2.00;;;25.50;45.20;;;;;;4875205;29;20477;-51
2022/09/06 02:00:09;;;;;;;2.20;2.00;;;25.50;45.50;;;;;;4896525;29;20831;-51
2022/09/06 02:02:52;;;;;;;2.20;2.00;;;25.50;45.70;;;;;;4865524;29;20469;-51
2022/09/06 02:05:27;;;;;;;3.20;2.03;;;25.50;45.60;;;;;;4883275;29;21055;-51
2022/09/06 02:08:00;;;;;;;1.87;1.77;;;25.50;45.70;;;;;;4887512;29;20560;-51
2022/09/06 02:10:34;;;;;;;1.70;1.60;;;25.50;45.50;;;;;;4876910;29;20688;-51
2022/09/06 02:13:06;;;;;;;5.13;2.67;;;25.50;45.60;;;;;;4895664;29;20473;-51
2022/09/06 02:15:39;;;;;;;3.63;2.07;;;25.50;45.70;;;;;;4878067;29;20474;-51
2022/09/06 02:18:13;;;;;;;2.17;1.97;;;25.50;45.80;;;;;;4876907;29;20952;-50
2022/09/06 02:20:47;;;;;;;1.67;1.57;;;25.50;45.90;;;;;;4887423;29;20451;-51
2022/09/06 02:23:17;;;;;;;2.80;1.87;;;25.50;45.40;;;;;;4866613;29;20542;-50
2022/09/06 02:25:53;;;;;;;2.40;2.20;;;25.40;45.10;;;;;;4886828;29;20462;-51
2022/09/06 02:28:22;;;;;;;2.47;2.10;;;25.50;45.60;;;;;;4876314;29;20463;-51
2022/09/06 02:30:57;;;;;;;1.60;1.50;;;25.50;45.80;;;;;;4894333;29;20541;-51
2022/09/06 02:33:30;;;;;;;2.50;2.00;;;25.40;45.30;;;;;;4896465;29;20469;-51
2022/09/06 02:36:06;;;;;;;1.90;1.80;;;25.40;45.30;;;;;;4867471;29;20554;-51
2022/09/06 02:38:37;;;;;;;1.80;1.70;;;25.40;45.30;;;;;;4893871;29;20435;-51
2022/09/06 02:41:09;;;;;;;2.50;2.30;;;25.50;45.50;;;;;;4892047;29;20869;-51
2022/09/06 02:43:37;;;;;;;2.43;2.23;;;25.40;45.20;;;;;;4894917;29;20474;-50
2022/09/06 02:46:07;;;;;;;1.90;1.80;;;25.40;45.30;;;;;;4892892;29;20506;-51
2022/09/06 02:48:36;;;;;;;2.50;2.30;;;25.40;45.20;;;;;;4890820;29;20478;-51
2022/09/06 02:51:06;;;;;;;1.80;1.70;;;25.40;45.40;;;;;;4892533;29;20450;-51
2022/09/06 02:53:35;;;;;;;2.30;2.10;;;25.40;45.30;;;;;;4896008;29;20481;-50
2022/09/06 02:56:03;;;;;;;2.70;2.50;;;25.40;45.60;;;;;;4867813;29;20474;-51
2022/09/06 02:58:32;;;;;;;2.60;1.87;;;25.40;45.80;;;;;;4893105;29;20542;-51
2022/09/06 03:01:01;;;;;;;2.30;2.10;;;25.40;45.40;;;;;;4892435;29;20470;-50
2022/09/06 03:03:31;;;;;;;2.43;2.07;;;25.40;45.20;;;;;;4889386;29;20438;-50
2022/09/06 03:05:59;;;;;;;1.90;1.80;;;25.40;45.10;;;;;;4875845;29;20466;-51
2022/09/06 03:08:32;;;;;;;2.27;2.07;;;25.40;45.00;;;;;;4877303;29;20471;-51
2022/09/06 03:11:01;;;;;;;2.90;2.30;;;25.40;45.20;;;;;;4872740;29;20472;-51
2022/09/06 03:13:29;;;;;;;2.33;1.97;;;25.40;45.40;;;;;;4890109;29;20447;-51
2022/09/06 03:15:59;;;;;;;2.90;2.20;;;25.40;45.30;;;;;;4895068;29;20481;-51
2022/09/06 03:18:31;;;;;;;2.30;2.10;;;25.40;45.50;;;;;;4886537;29;20447;-51
2022/09/06 03:21:00;;;;;;;1.97;1.80;;;25.40;45.50;;;;;;4886328;29;20475;-51
2022/09/06 03:23:29;;;;;;;2.30;2.10;;;25.40;45.60;;;;;;4890004;29;20459;-50
2022/09/06 03:25:58;;;;;;;2.53;1.87;;;25.40;45.40;;;;;;4889970;29;20449;-51
2022/09/06 03:28:27;;;;;;;2.30;2.10;;;25.40;45.40;;;;;;4874134;29;21014;-50
2022/09/06 03:30:56;;;;;;;2.00;1.90;;;25.40;45.40;;;;;;4887856;29;20918;-51
2022/09/06 03:33:24;;;;;;;3.57;2.30;;;25.40;45.40;;;;;;4879605;29;20845;-50
2022/09/06 03:35:56;;;;;;;2.80;2.07;;;25.40;45.50;;;;;;4887721;29;20436;-51
2022/09/06 03:38:26;;;;;;;2.70;2.30;;;25.40;45.50;;;;;;4881430;29;20860;-51
2022/09/06 03:40:55;;;;;;;2.17;1.97;;;25.30;45.50;;;;;;4889097;29;20481;-50
2022/09/06 03:43:25;;;;;;;2.17;1.90;;;25.30;45.50;;;;;;4876453;29;20540;-50
2022/09/06 03:45:55;;;;;;;2.53;2.30;;;25.30;45.40;;;;;;4887755;29;20795;-51
2022/09/06 03:48:27;;;;;;;2.40;2.20;;;25.40;45.60;;;;;;4874197;29;20471;-51
2022/09/06 03:50:58;;;;;;;3.93;2.03;;;25.30;45.60;;;;;;4887318;29;20526;-51
2022/09/06 03:53:29;;;;;;;2.10;1.80;;;25.30;45.50;;;;;;4886937;29;20506;-51
2022/09/06 03:55:58;;;;;;;3.30;2.20;;;25.30;45.50;;;;;;4883130;29;20868;-51
2022/09/06 03:58:31;;;;;;;2.33;2.13;;;25.30;45.60;;;;;;4879651;29;20822;-51
2022/09/06 04:01:05;;;;;;;2.30;2.10;;;25.30;45.60;;;;;;4869736;29;20466;-51
2022/09/06 04:03:34;;;;;;;2.60;1.97;;;25.30;45.60;;;;;;4884060;29;20538;-51
2022/09/06 04:06:05;;;;;;;2.30;2.10;;;25.30;45.50;;;;;;4892289;29;21039;-51
2022/09/06 04:08:34;;;;;;;2.70;2.50;;;25.30;45.40;;;;;;4876379;29;20471;-51
2022/09/06 04:11:03;;;;;;;2.70;1.63;;;25.30;45.30;;;;;;4888707;29;20550;-51
2022/09/06 04:13:32;;;;;;;1.80;1.70;;;25.30;45.50;;;;;;4875495;29;20940;-50
2022/09/06 04:16:01;;;;;;;2.03;1.93;;;25.30;45.70;;;;;;4892196;29;20453;-51
2022/09/06 04:18:30;;;;;;;2.17;1.97;;;25.30;45.60;;;;;;4895193;29;20529;-51
2022/09/06 04:20:59;;;;;;;2.47;2.27;;;25.30;45.70;;;;;;4870064;29;20503;-54
2022/09/06 04:23:30;;;;;;;1.83;1.73;;;25.30;45.60;;;;;;4885331;29;20441;-50
2022/09/06 04:25:59;;;;;;;2.40;1.97;;;25.30;45.60;;;;;;4880135;29;20509;-51
2022/09/06 04:28:28;;;;;;;2.27;1.70;;;25.30;45.50;;;;;;4866341;29;20431;-51
2022/09/06 04:30:59;;;;;;;5.87;2.07;;;25.30;45.60;;;;;;4891205;29;20459;-51
2022/09/06 04:33:33;;;;;;;2.37;2.10;;;25.30;45.60;;;;;;4870802;29;21038;-50
2022/09/06 04:36:04;;;;;;;2.30;1.90;;;25.30;45.50;;;;;;4890562;29;20554;-51
2022/09/06 04:38:38;;;;;;;2.27;2.07;;;25.20;45.40;;;;;;4872455;29;20449;-51
2022/09/06 04:41:07;;;;;;;2.23;1.90;;;25.20;45.50;;;;;;4887763;29;20477;-51
2022/09/06 04:43:35;;;;;;;1.70;1.60;;;25.20;45.60;;;;;;4872207;29;20453;-50
2022/09/06 04:46:06;;;;;;;1.80;1.70;;;25.20;45.50;;;;;;4885020;29;20570;-51
2022/09/06 04:48:35;;;;;;;2.20;2.10;;;25.20;45.40;;;;;;4879881;29;20999;-51
2022/09/06 04:51:04;;;;;;;2.27;2.03;;;25.20;45.50;;;;;;4882353;29;20899;-50
2022/09/06 04:53:32;;;;;;;2.37;2.17;;;25.20;45.40;;;;;;4885536;29;20879;-51
2022/09/06 04:56:03;;;;;;;2.50;2.30;;;25.20;45.40;;;;;;4885700;29;20467;-51
2022/09/06 04:58:31;;;;;;;2.27;2.07;;;25.20;45.40;;;;;;4890493;29;20451;-51
2022/09/06 05:01:00;;;;;;;3.33;2.60;;;25.20;45.40;;;;;;4875922;29;20467;-51
2022/09/06 05:03:29;;;;;;;2.20;2.10;;;25.20;45.40;;;;;;4850576;29;20451;-51
2022/09/06 05:06:06;;;;;;;2.63;2.03;;;25.20;45.40;;;;;;4890310;29;20561;-50
2022/09/06 05:08:37;;;;;;;6.30;2.10;;;25.20;45.40;;;;;;4871016;29;20480;-51
2022/09/06 05:11:08;;;;;;;5.77;2.60;;;25.20;45.40;;;;;;4878879;29;20475;-51
2022/09/06 05:13:37;;;;;;;4.80;2.00;;;25.20;45.40;;;;;;4859879;29;20447;-51
2022/09/06 05:16:07;;;;;;;1.90;1.80;;;25.20;45.40;;;;;;4880813;29;20470;-51
2022/09/06 05:18:36;;;;;;;2.20;2.00;;;25.10;45.30;;;;;;4883217;29;20459;-51
2022/09/06 05:21:06;;;;;;;2.13;1.90;;;25.10;45.30;;;;;;4875569;29;20526;-51
2022/09/06 05:23:35;;;;;;;2.17;2.07;;;25.10;45.20;;;;;;4876366;29;20431;-51
2022/09/06 05:26:03;;;;;;;1.90;1.80;;;25.20;45.30;;;;;;4873211;29;20477;-51
2022/09/06 05:28:34;;;;;;;2.27;2.10;;;25.10;45.20;;;;;;4875188;29;20995;-51
2022/09/06 05:31:07;;;;;;;3.00;1.70;;;25.10;45.40;;;;;;4890724;29;20979;-51
2022/09/06 05:33:35;;;;;;;3.23;2.03;;;25.10;45.30;;;;;;4877389;29;20538;-51
2022/09/06 05:36:05;;;;;;;2.30;2.10;;;25.10;45.30;;;;;;4881782;29;20565;-51
2022/09/06 05:38:34;;;;;;;30.63;5.37;;;25.10;45.30;;;;;;4863046;29;20483;-51
2022/09/06 05:41:02;;;;;;;4.53;2.10;;;25.10;45.30;;;;;;4863235;29;20550;-51
2022/09/06 05:43:32;;;;;;;4.80;2.30;;;25.10;45.40;;;;;;4874693;29;20471;-50
2022/09/06 05:46:01;;;;;;;2.97;2.30;;;25.10;45.30;;;;;;4882207;29;20503;-51
2022/09/06 05:48:29;;;;;;;2.50;2.30;;;25.10;45.30;;;;;;4881455;29;20805;-51
2022/09/06 05:51:05;;;;;;;2.57;2.03;;;25.10;45.40;;;;;;4863756;29;21078;-50
2022/09/06 05:53:35;;;;;;;3.23;2.03;;;25.10;45.40;;;;;;4884767;29;20955;-51
2022/09/06 05:56:05;;;;;;;2.33;2.13;;;25.10;45.40;;;;;;4886367;29;20871;-51
2022/09/06 05:58:36;;;;;;;3.10;1.90;;;25.10;45.30;;;;;;4870384;29;20475;-51
2022/09/06 06:01:07;;;;;;;3.37;2.00;;;25.10;45.40;;;;;;4876705;29;20470;-51
2022/09/06 06:03:35;;;;;;;2.03;1.87;;;25.10;45.30;;;;;;4884949;29;20484;-51
2022/09/06 06:06:04;;;;;;;2.60;2.40;;;25.10;45.50;;;;;;4876622;29;20468;-51
2022/09/06 06:08:33;;;;;;;4.13;1.90;;;25.10;45.60;;;;;;4891475;29;20893;-50
2022/09/06 06:11:02;;;;;;;3.23;2.33;;;25.00;45.60;;;;;;4877233;29;20475;-50
2022/09/06 06:13:33;;;;;;;2.40;2.20;;;25.00;45.50;;;;;;4886038;29;20800;-51
2022/09/06 06:16:04;;;;;;;2.33;2.13;;;25.10;45.50;;;;;;4877432;29;20573;-51
2022/09/06 06:18:32;;;;;;;2.67;2.10;;;25.00;45.60;;;;;;4869504;29;20439;-52
2022/09/06 06:21:08;;;;;;;2.30;2.00;;;25.00;45.60;;;;;;4877332;29;20478;-51
2022/09/06 06:23:37;;;;;;;2.60;1.80;;;25.00;45.60;;;;;;4883947;29;20448;-50
2022/09/06 06:26:07;;;;;;;2.17;1.60;;;25.00;45.60;;;;;;4861865;29;20557;-51
2022/09/06 06:28:36;;;;;;;5.80;2.20;;;25.00;45.60;;;;;;4878314;29;20440;-51
2022/09/06 06:31:08;;;;;;;1.80;1.70;;;25.00;45.60;;;;;;4878509;29;20471;-51
2022/09/06 06:33:37;;;;;;;2.27;2.17;;;25.00;45.70;;;;;;4885642;29;20432;-51
2022/09/06 06:36:07;;;;;;;1.97;1.70;;;25.00;45.70;;;;;;4880756;29;20500;-50
2022/09/06 06:38:37;;;;;;;2.20;1.60;;;25.00;45.70;;;;;;4882713;29;20780;-51
2022/09/06 06:41:07;;;;;;;2.27;1.90;;;25.00;45.70;;;;;;4888839;29;20789;-52
2022/09/06 06:43:36;;;;;;;1.60;1.50;;;25.00;45.70;;;;;;4882524;29;20456;-50
2022/09/06 06:46:09;;;;;;;2.47;2.00;;;25.00;45.60;;;;;;4883357;29;20918;-51
2022/09/06 06:48:39;;;;;;;2.77;1.67;;;25.00;45.60;;;;;;4867660;29;20540;-50
2022/09/06 06:51:08;;;;;;;1.73;1.60;;;25.00;45.60;;;;;;4876615;29;20467;-51
2022/09/06 06:53:37;;;;;;;1.80;1.70;;;25.00;45.70;;;;;;4876782;29;20963;-51
2022/09/06 06:56:17;;;;;;;1.83;1.73;;;25.00;45.70;;;;;;4868887;29;20491;-51
2022/09/06 06:58:47;;;;;;;1.80;1.67;;;25.00;45.80;;;;;;4882180;29;21014;-51
2022/09/06 07:01:20;;;;;;;1.70;1.60;;;24.90;45.80;;;;;;4892657;29;20439;-51
2022/09/06 07:03:49;;;;;;;2.50;2.30;;;24.90;45.70;;;;;;4873413;29;20986;-51
2022/09/06 07:06:19;;;;;;;1.90;1.80;;;25.00;45.90;;;;;;4872367;29;20919;-50
2022/09/06 07:08:49;;;;;;;1.50;1.40;;;24.90;45.80;;;;;;4878432;29;20443;-51
2022/09/06 07:11:18;;;;;;;3.20;1.93;;;24.90;45.90;;;;;;4873215;29;20474;-51
2022/09/06 07:13:51;;;;;;;1.73;1.63;;;25.00;46.00;;;;;;4864079;29;20546;-51
2022/09/06 07:16:23;;;;;;;2.67;1.57;;;24.90;45.90;;;;;;4877766;29;20439;-51
2022/09/06 07:18:52;;;;;;;1.67;1.57;;;24.90;46.00;;;;;;4878873;29;20455;-52
2022/09/06 07:21:25;;;;;;;2.00;1.27;;;25.00;46.20;;;;;;4880158;29;20476;-51
2022/09/06 07:24:09;;;;;;;1.60;1.50;;;24.90;46.00;;;;;;4884276;29;20467;-51
2022/09/06 07:26:38;;;;;;;1.70;1.40;;;25.00;46.20;;;;;;4879167;29;20452;-51
2022/09/06 07:29:08;;;;;;;2.07;1.40;;;25.00;46.20;;;;;;4884974;29;20459;-52
2022/09/06 07:31:39;;;;;;;2.57;1.53;;;25.00;46.40;;;;;;4872708;29;20493;-52
2022/09/06 07:34:27;;;;;;;1.60;1.50;;;25.00;46.40;;;;;;4866564;29;20464;-52
2022/09/06 07:36:56;;;;;;;1.77;1.40;;;24.90;46.20;;;;;;4881919;29;20467;-52
2022/09/06 07:39:25;;;;;;;1.57;1.47;;;25.00;46.50;;;;;;4880184;29;20960;-52
2022/09/06 07:41:54;;;;;;;2.30;1.40;;;25.00;46.50;;;;;;4877453;29;20535;-51
2022/09/06 07:44:22;;;;;;;2.13;1.63;;;25.00;46.60;;;;;;4890690;29;20459;-51
2022/09/06 07:46:52;;;;;;;1.80;1.70;;;25.00;46.60;;;;;;4882784;29;20486;-51
2022/09/06 07:49:21;;;;;;;2.03;1.63;;;25.00;46.60;;;;;;4882452;29;20546;-52
2022/09/06 07:51:50;;;;;;;1.90;1.70;;;25.00;46.50;;;;;;4878854;29;20491;-52
2022/09/06 07:54:18;;;;;;;1.53;1.43;;;25.00;46.70;;;;;;4885245;29;20455;-52
2022/09/06 07:56:58;;;;;;;2.50;1.80;;;25.00;46.70;;;;;;4877068;29;20479;-52
2022/09/06 07:59:27;;;;;;;4.10;1.80;;;25.00;46.50;;;;;;4878927;29;20435;-52
2022/09/06 08:01:57;;;;;;;1.73;1.40;;;25.00;46.50;;;;;;4883612;29;20497;-51
2022/09/06 08:04:26;;;;;;;1.63;1.53;;;25.00;46.60;;;;;;4873702;29;20534;-52
2022/09/06 08:06:56;;;;;;;1.90;1.50;;;25.00;46.30;;;;;;4877127;29;20538;-51
2022/09/06 08:09:44;;;;;;;2.70;1.60;;;25.00;47.20;;;;;;4887511;29;20470;-52
2022/09/06 08:12:13;;;;;;;1.30;1.20;;;25.00;46.10;;;;;;4882247;29;20570;-51
2022/09/06 08:14:42;;;;;;;1.60;1.50;;;25.00;45.90;;;;;;4876838;29;20466;-52
2022/09/06 08:17:12;;;;;;;1.47;1.37;;;25.00;45.90;;;;;;4873998;29;20841;-52
2022/09/06 08:19:41;;;;;;;1.53;1.43;;;25.10;45.90;;;;;;4870595;29;20816;-52
2022/09/06 08:22:09;;;;;;;1.50;1.40;;;25.00;45.70;;;;;;4890483;29;20510;-51
2022/09/06 08:24:38;;;;;;;1.50;1.40;;;25.00;45.70;;;;;;4878047;29;20462;-51
2022/09/06 08:27:07;;;;;;;1.77;1.33;;;25.10;45.70;;;;;;4874770;29;20558;-52
2022/09/06 08:29:36;;;;;;;1.53;1.43;;;25.10;45.70;;;;;;4873171;29;20453;-52
2022/09/06 08:32:04;;;;;;;1.33;1.23;;;25.00;45.60;;;;;;4883986;29;20483;-52
2022/09/06 08:34:35;;;;;;;1.90;1.57;;;25.00;45.60;;;;;;4880100;29;20508;-52
2022/09/06 08:37:04;;;;;;;1.40;1.30;;;25.10;45.60;;;;;;4887259;29;20923;-51
2022/09/06 08:39:33;;;;;;;1.50;1.40;;;25.10;45.70;;;;;;4894076;29;20442;-51
2022/09/06 08:42:04;;;;;;;1.20;1.10;;;25.10;45.70;;;;;;4877831;29;20474;-51
2022/09/06 08:44:37;;;;;;;1.40;1.30;;;25.10;45.60;;;;;;4880302;29;21047;-52
2022/09/06 08:47:21;;;;;;;1.30;1.20;;;25.00;46.70;;;;;;4876744;29;20535;-51
2022/09/06 08:49:55;;;;;;;1.33;1.00;;;25.10;45.60;;;;;;4855127;29;20466;-51
2022/09/06 08:52:35;;;;;;;1.70;1.60;;;25.10;45.60;;;;;;4876222;29;20482;-52
2022/09/06 08:55:35;;;;;;;1.77;1.50;;;25.10;45.60;;;;;;4871230;29;20479;-51
2022/09/06 08:58:19;;;;;;;1.23;1.13;;;25.10;45.60;;;;;;4890666;29;20482;-51
2022/09/06 09:00:52;;;;;;;1.50;1.40;;;25.10;45.60;;;;;;4891242;29;20443;-52
2022/09/06 09:03:23;;;;;;;1.40;1.30;;;25.10;45.60;;;;;;4870412;29;20523;-52
2022/09/06 09:05:53;;;;;;;1.40;1.30;;;25.10;45.50;;;;;;4873137;29;20474;-52
2022/09/06 09:08:27;;;;;;;1.60;1.50;;;25.10;45.60;;;;;;4877337;29;20435;-52
2022/09/06 09:11:02;;;;;;;2.60;1.20;;;25.10;45.60;;;;;;4871508;29;20807;-52
2022/09/06 09:13:35;;;;;;;1.63;1.50;;;25.10;45.50;;;;;;4890994;29;20954;-52
2022/09/06 09:16:04;;;;;;;1.30;1.20;;;25.10;45.50;;;;;;4867359;29;20914;-52
2022/09/06 09:18:37;;;;;;;1.30;1.20;;;25.10;45.60;;;;;;4885107;29;20495;-51
2022/09/06 09:21:07;;;;;;;3.30;1.83;;;25.10;45.50;;;;;;4885961;29;20485;-52
2022/09/06 09:23:36;;;;;;;1.70;1.60;;;25.10;45.60;;;;;;4876488;29;20432;-52
2022/09/06 09:26:09;;;;;;;1.60;1.50;;;25.10;45.50;;;;;;4880460;29;20452;-51
2022/09/06 09:28:38;;;;;;;1.30;1.20;;;25.10;45.60;;;;;;4865216;29;20435;-52
2022/09/06 09:31:07;;;;;;;0.90;0.90;;;25.10;45.60;;;;;;4877922;29;21071;-51
2022/09/06 09:33:38;;;;;;;2.10;1.33;;;25.10;45.50;;;;;;4871867;29;20495;-52
2022/09/06 09:36:12;;;;;;;1.40;1.20;;;25.10;45.60;;;;;;4875061;29;20458;-50
2022/09/06 09:38:43;;;;;;;1.30;1.20;;;25.10;45.60;;;;;;4875514;29;20448;-51
2022/09/06 09:41:28;;;;;;;1.20;1.00;;;25.10;45.60;;;;;;4881306;29;20660;-52
2022/09/06 09:44:03;;;;;;;1.40;1.30;;;25.10;45.60;;;;;;4888471;29;20467;-52
2022/09/06 09:46:34;;;;;;;1.30;1.20;;;25.10;45.60;;;;;;4885234;29;20454;-51
2022/09/06 09:49:06;;;;;;;1.20;1.10;;;25.10;45.60;;;;;;4880001;29;20459;-54
2022/09/06 09:51:38;;;;;;;1.10;1.00;;;25.10;45.60;;;;;;4881851;29;20532;-51
2022/09/06 09:54:08;;;;;;;1.43;1.27;;;25.10;45.60;;;;;;4871227;29;20831;-51
2022/09/06 09:56:43;;;;;;;1.40;1.30;;;25.10;45.60;;;;;;4871717;29;20542;-51
2022/09/06 09:59:23;;;;;;;1.50;1.40;;;25.10;45.60;;;;;;4878447;29;20454;-51
2022/09/06 10:01:55;;;;;;;1.33;1.10;;;25.10;45.70;;;;;;4878201;29;20470;-51
2022/09/06 10:04:37;;;;;;;1.87;1.57;;;25.10;45.60;;;;;;4871481;29;20474;-51
2022/09/06 10:07:13;;;;;;;1.30;1.20;;;25.10;45.60;;;;;;4879167;29;20486;-51
2022/09/06 10:09:43;;;;;;;2.10;1.13;;;25.10;45.70;;;;;;4868641;29;20545;-51
2022/09/06 10:12:17;;;;;;;1.87;1.20;;;25.10;45.70;;;;;;4885601;29;20483;-52
2022/09/06 10:14:48;;;;;;;1.20;1.10;;;25.10;45.70;;;;;;4889510;29;20458;-51
2022/09/06 10:17:28;;;;;;;1.23;1.10;;;25.10;45.70;;;;;;4870874;29;20898;-51
2022/09/06 10:20:00;;;;;;;1.60;1.20;;;25.10;45.70;;;;;;4876914;29;20439;-52
2022/09/06 10:22:31;;;;;;;3.90;1.10;;;25.10;45.70;;;;;;4875804;29;20467;-52
2022/09/06 10:25:29;;;;;;;1.10;1.00;;;25.10;45.70;;;;;;4889377;29;20471;-51
2022/09/06 10:28:29;;;;;;;1.97;1.30;;;25.10;45.70;;;;;;4869779;29;20461;-51
2022/09/06 10:31:22;;;;;;;0.87;0.87;;;25.10;45.80;;;;;;4888610;29;20450;-52
2022/09/06 10:34:04;;;;;;;1.53;1.20;;;25.10;45.90;;;;;;4882504;29;20476;-51
2022/09/06 10:36:37;;;;;;;1.23;1.00;;;25.10;45.70;;;;;;4856990;29;20472;-52
2022/09/06 10:39:16;;;;;;;1.40;1.30;;;25.10;45.70;;;;;;4885780;29;20794;-52
2022/09/06 10:42:00;;;;;;;2.37;1.60;;;25.10;45.90;;;;;;4868555;29;20458;-51
2022/09/06 10:44:45;;;;;;;2.60;1.00;;;25.20;45.90;;;;;;4878309;29;20468;-51
2022/09/06 10:47:15;;;;;;;1.23;1.10;;;25.20;45.80;;;;;;4882195;29;20483;-51
2022/09/06 10:49:49;;;;;;;1.57;1.47;;;25.20;45.80;;;;;;4882779;29;20944;-52
2022/09/06 10:52:24;;;;;;;1.73;1.63;;;25.20;45.70;;;;;;4861932;29;20507;-52
2022/09/06 10:55:02;;;;;;;1.40;1.30;;;25.20;45.80;;;;;;4883559;29;20458;-52
2022/09/06 10:57:36;;;;;;;1.50;1.40;;;25.10;45.70;;;;;;4881915;29;20517;-52
2022/09/06 11:00:25;;;;;;;1.20;1.10;;;25.20;45.70;;;;;;4869978;29;20966;-52
2022/09/06 11:03:02;;;;;;;1.00;0.90;;;25.10;45.80;;;;;;4871109;29;20849;-51
2022/09/06 11:05:53;;;;;;;1.30;1.20;;;25.10;45.80;;;;;;4872827;29;20474;-52
2022/09/06 11:08:28;;;;;;;1.27;1.17;;;25.10;45.90;;;;;;4877936;29;20435;-52
2022/09/06 11:11:19;;;;;;;1.90;1.20;;;25.10;45.90;;;;;;4866355;29;20819;-52
2022/09/06 11:13:48;;;;;;;2.03;1.33;;;25.10;45.90;;;;;;4876352;29;20841;-52
2022/09/06 11:16:21;;;;;;;1.63;1.30;;;25.10;45.90;;;;;;4884151;29;20598;-51
2022/09/06 11:18:54;;;;;;;1.37;1.17;;;25.10;45.90;;;;;;4882444;29;20454;-52
2022/09/06 11:22:01;;;;;;;1.60;1.13;;;25.10;46.00;;;;;;4885376;29;20943;-51
2022/09/06 11:24:50;;;;;;;1.87;1.50;;;25.10;46.10;;;;;;4861410;29;20963;-52
2022/09/06 11:27:28;;;;;;;1.00;0.90;;;25.10;46.00;;;;;;4891149;29;21069;-51
2022/09/06 11:29:57;;;;;;;1.43;1.33;;;25.10;46.00;;;;;;4876479;29;20459;-52
2022/09/06 11:32:34;;;;;;;1.60;1.47;;;25.10;46.00;;;;;;4890911;29;20478;-51
2022/09/06 11:35:06;;;;;;;2.07;1.50;;;25.10;46.00;;;;;;4868096;29;20466;-51
2022/09/06 11:37:38;;;;;;;1.57;1.47;;;25.10;46.00;;;;;;4880509;29;20486;-52
2022/09/06 11:40:21;;;;;;;1.60;1.40;;;25.10;46.10;;;;;;4882038;29;20989;-52
2022/09/06 11:43:18;;;;;;;1.70;1.23;;;25.10;46.20;;;;;;4883392;29;20463;-51
2022/09/06 11:45:50;;;;;;;1.60;1.50;;;25.10;46.10;;;;;;4878024;29;20439;-50
2022/09/06 11:48:48;;;;;;;4.40;1.57;;;25.10;46.00;;;;;;4883133;29;20541;-52
2022/09/06 11:51:33;;;;;;;1.27;1.17;;;25.20;46.10;;;;;;4865469;29;20519;-52
2022/09/06 11:54:22;;;;;;;1.70;1.60;;;25.10;46.00;;;;;;4891823;29;20862;-52
2022/09/06 11:56:57;;;;;;;2.10;1.20;;;25.20;46.10;;;;;;4858675;29;20981;-51
2022/09/06 11:59:52;;;;;;;2.00;1.50;;;25.10;46.00;;;;;;4882320;29;20442;-52
2022/09/06 12:02:35;;;;;;;1.43;1.17;;;25.20;46.00;;;;;;4876067;29;20902;-52
2022/09/06 12:05:24;;;;;;;1.90;1.80;;;25.20;46.00;;;;;;4868107;29;20482;-51
2022/09/06 12:08:14;;;;;;;1.90;1.67;;;25.20;46.00;;;;;;4875685;29;20498;-52
2022/09/06 12:10:49;;;;;;;2.80;1.37;;;25.20;45.90;;;;;;4883665;29;20466;-52
2022/09/06 12:13:55;;;;;;;1.50;1.10;;;25.20;45.90;;;;;;4885387;29;20499;-52
2022/09/06 12:17:06;;;;;;;1.60;1.17;;;25.20;45.80;;;;;;4881671;29;20510;-52
2022/09/06 12:19:44;;;;;;;1.77;1.10;;;25.20;45.70;;;;;;4867902;29;20462;-51
2022/09/06 12:22:53;;;;;;;1.83;1.53;;;25.20;45.60;;;;;;4869711;29;20463;-52
2022/09/06 12:25:52;;;;;;;2.27;1.70;;;25.20;45.40;;;;;;4860141;29;20487;-51
2022/09/06 12:28:43;;;;;;;1.30;1.20;;;25.20;45.40;;;;;;4879119;29;20471;-52
2022/09/06 12:31:34;;;;;;;1.27;1.17;;;25.20;45.40;;;;;;4875449;29;20475;-51
2022/09/06 12:34:09;;;;;;;1.47;1.33;;;25.20;45.40;;;;;;4855966;29;20927;-52
2022/09/06 12:36:48;;;;;;;2.53;1.60;;;25.20;45.40;;;;;;4891039;29;21002;-52
2022/09/06 12:39:20;;;;;;;1.73;1.40;;;25.20;45.40;;;;;;4890240;29;20454;-51
2022/09/06 12:41:50;;;;;;;1.30;1.20;;;25.20;45.40;;;;;;4862863;29;20475;-52
2022/09/06 12:44:27;;;;;;;1.40;1.30;;;25.20;45.10;;;;;;4877629;29;20519;-52
2022/09/06 12:47:03;;;;;;;1.60;1.47;;;25.20;45.10;;;;;;4879581;29;20546;-51
2022/09/06 12:49:32;;;;;;;1.30;1.20;;;25.20;44.90;;;;;;4888180;29;20546;-52
2022/09/06 12:52:10;;;;;;;1.60;1.50;;;25.30;45.00;;;;;;4877493;29;20485;-52
2022/09/06 12:54:44;;;;;;;2.20;1.37;;;25.20;45.00;;;;;;4869239;29;20486;-52
2022/09/06 12:57:17;;;;;;;1.77;1.20;;;25.20;44.90;;;;;;4882895;29;20485;-51
2022/09/06 12:59:53;;;;;;;1.77;1.07;;;25.30;44.90;;;;;;4863610;29;20444;-52
2022/09/06 13:02:30;;;;;;;1.40;1.30;;;25.30;44.90;;;;;;4861140;29;20550;-51
2022/09/06 13:05:05;;;;;;;1.17;1.07;;;25.30;44.80;;;;;;4873315;29;20568;-52
2022/09/06 13:07:36;;;;;;;1.23;1.13;;;25.30;44.70;;;;;;4876282;29;20478;-52
2022/09/06 13:10:05;;;;;;;2.00;1.67;;;25.30;44.80;;;;;;4864682;29;20458;-52
2022/09/06 13:12:37;;;;;;;1.20;1.00;;;25.30;44.70;;;;;;4885832;29;20483;-52
2022/09/06 13:15:12;;;;;;;1.50;1.40;;;25.30;44.80;;;;;;4891401;29;20482;-52
2022/09/06 13:17:42;;;;;;;1.40;1.30;;;25.30;44.60;;;;;;4865453;29;20570;-52
2022/09/06 13:20:13;;;;;;;1.40;1.30;;;25.30;44.70;;;;;;4884658;29;20499;-51
2022/09/06 13:22:45;;;;;;;1.80;1.50;;;25.30;44.50;;;;;;4879490;29;20475;-51